Time;durP1;ratioP1;P1;durP2;ratioP2;P2;SDS_P1;SDS_P2;PMS_P1;PMS_P2;Temp;Humidity;BMP_temperature;BMP_pressure;BME280_temperature;BME280_humidity;BME280_pressure;Samples;Min_cycle;Max_cycle;Signal;HPM_P1;HPM_P2
2024/01/14 00:00:34;;;;;;;28.60;20.50;;;;;;;-2.81;54.31;94808.72;5030237;28;20234;-71
2024/01/14 00:03:00;;;;;;;29.43;20.17;;;;;;;-2.94;55.07;94815.38;5031209;28;20226;-73
2024/01/14 00:05:26;;;;;;;26.20;19.30;;;;;;;-2.93;54.69;94796.47;5032615;28;20197;-73
2024/01/14 00:07:54;;;;;;;28.57;19.10;;;;;;;-2.78;54.45;94803.44;5029292;28;20191;-72
2024/01/14 00:10:20;;;;;;;28.00;20.13;;;;;;;-2.92;55.04;94822.13;5031785;28;20238;-73
2024/01/14 00:12:45;;;;;;;29.30;20.47;;;;;;;-2.90;54.91;94804.88;5046019;28;20300;-72
2024/01/14 00:15:11;;;;;;;29.07;20.30;;;;;;;-2.90;55.01;94804.03;5032897;28;20225;-73
2024/01/14 00:17:36;;;;;;;26.83;19.63;;;;;;;-2.96;55.17;94814.66;5033158;28;20229;-72
2024/01/14 00:20:03;;;;;;;27.73;20.63;;;;;;;-2.91;54.92;94805.78;5028462;28;20205;-72
2024/01/14 00:22:28;;;;;;;26.63;20.13;;;;;;;-3.15;55.06;94799.28;4992242;28;20302;-73
2024/01/14 00:24:54;;;;;;;28.53;20.57;;;;;;;-2.97;55.45;94812.97;5031010;28;20246;-73
2024/01/14 00:27:19;;;;;;;25.77;19.60;;;;;;;-2.99;55.15;94783.94;5032411;28;20259;-73
2024/01/14 00:29:45;;;;;;;30.20;21.10;;;;;;;-3.05;55.35;94797.06;5044159;28;20291;-71
2024/01/14 00:32:11;;;;;;;27.93;19.73;;;;;;;-2.87;55.45;94806.47;5032316;28;20190;-73
2024/01/14 00:34:40;;;;;;;29.47;20.33;;;;;;;-2.90;55.40;94788.59;5029171;28;20193;-72
2024/01/14 00:37:05;;;;;;;26.33;20.00;;;;;;;-2.79;55.11;94794.03;5032204;28;20431;-73
2024/01/14 00:39:31;;;;;;;29.03;20.53;;;;;;;-2.99;55.63;94801.94;5029268;28;20226;-73
2024/01/14 00:41:56;;;;;;;37.00;22.73;;;;;;;-3.26;55.97;94792.09;5029735;28;20221;-74
2024/01/14 00:44:22;;;;;;;29.97;21.13;;;;;;;-2.99;55.83;94789.91;5048795;28;20190;-72
2024/01/14 00:46:47;;;;;;;30.57;20.23;;;;;;;-3.11;55.91;94803.34;5032568;28;20193;-72
2024/01/14 00:49:13;;;;;;;31.73;22.27;;;;;;;-3.23;56.05;94793.69;5029173;28;20219;-74
2024/01/14 00:51:38;;;;;;;30.10;21.07;;;;;;;-3.12;55.78;94779.38;5032305;28;20271;-72
2024/01/14 00:54:04;;;;;;;30.13;21.43;;;;;;;-3.22;56.44;94785.88;5054329;28;20213;-72
2024/01/14 00:56:29;;;;;;;29.70;21.67;;;;;;;-3.19;56.25;94784.91;5048916;28;20232;-73
2024/01/14 00:58:54;;;;;;;30.43;21.03;;;;;;;-3.20;56.42;94776.34;5030869;28;20186;-72
2024/01/14 01:01:20;;;;;;;31.27;22.33;;;;;;;-3.36;56.97;94775.44;5048570;28;20285;-72
2024/01/14 01:03:45;;;;;;;31.00;21.43;;;;;;;-3.31;56.70;94781.19;5031498;28;20257;-72
2024/01/14 01:06:11;;;;;;;31.03;21.30;;;;;;;-3.25;56.57;94777.50;5030888;28;20241;-73
2024/01/14 01:08:37;;;;;;;28.77;20.97;;;;;;;-3.25;56.80;94778.31;5032013;28;20252;-72
2024/01/14 01:11:02;;;;;;;26.90;20.57;;;;;;;-3.41;56.88;94773.09;5049012;28;20198;-72
2024/01/14 01:13:28;;;;;;;30.63;21.60;;;;;;;-3.21;56.13;94772.09;5027896;28;20226;-73
2024/01/14 01:15:53;;;;;;;31.47;20.10;;;;;;;-3.23;56.44;94771.38;5046461;28;20225;-72
2024/01/14 01:18:19;;;;;;;31.77;21.40;;;;;;;-3.25;56.29;94765.47;5045815;28;20312;-73
2024/01/14 01:20:45;;;;;;;34.77;22.13;;;;;;;-3.34;56.43;94768.50;5031772;28;20230;-71
2024/01/14 01:23:10;;;;;;;31.27;20.80;;;;;;;-3.20;56.42;94760.94;5048928;28;20190;-71
2024/01/14 01:25:36;;;;;;;30.40;21.73;;;;;;;-3.15;56.04;94769.25;5031579;28;20241;-71
2024/01/14 01:28:02;;;;;;;30.00;20.87;;;;;;;-3.12;55.82;94760.56;5027587;28;20280;-72
2024/01/14 01:30:27;;;;;;;31.00;21.67;;;;;;;-3.28;56.56;94755.34;5042235;28;20224;-71
2024/01/14 01:32:53;;;;;;;31.30;21.17;;;;;;;-3.42;56.77;94740.59;5046422;28;20218;-71
2024/01/14 01:35:19;;;;;;;28.73;19.90;;;;;;;-3.37;56.75;94737.75;5031799;28;20194;-72
2024/01/14 01:37:44;;;;;;;31.00;20.70;;;;;;;-3.61;56.94;94740.66;5031817;28;20236;-72
2024/01/14 01:40:11;;;;;;;29.27;20.67;;;;;;;-3.64;57.16;94734.78;5030478;28;20230;-73
2024/01/14 01:42:37;;;;;;;32.17;22.30;;;;;;;-3.58;57.33;94743.06;5048001;28;20229;-72
2024/01/14 01:45:02;;;;;;;27.53;20.70;;;;;;;-3.51;57.51;94740.19;5055254;28;20727;-71
2024/01/14 01:47:28;;;;;;;30.20;21.83;;;;;;;-3.67;57.31;94737.53;5057063;28;20189;-71
2024/01/14 01:49:54;;;;;;;32.53;23.60;;;;;;;-3.82;57.45;94741.66;5032752;28;20217;-72
2024/01/14 01:52:20;;;;;;;33.93;22.33;;;;;;;-3.64;57.24;94739.94;5028756;28;20300;-72
2024/01/14 01:54:49;;;;;;;31.33;22.53;;;;;;;-3.93;57.65;94734.47;5031582;28;20390;-70
2024/01/14 01:57:16;;;;;;;32.57;21.97;;;;;;;-3.82;57.72;94727.06;5014804;28;20336;-71
2024/01/14 01:59:43;;;;;;;34.73;22.70;;;;;;;-3.86;57.65;94725.53;5035505;28;20308;-72
2024/01/14 02:02:09;;;;;;;31.37;22.40;;;;;;;-3.89;57.82;94717.16;5051579;28;20181;-72
2024/01/14 02:04:35;;;;;;;32.03;22.20;;;;;;;-3.79;57.80;94714.09;5031082;28;20218;-71
2024/01/14 02:07:01;;;;;;;28.23;21.07;;;;;;;-3.78;57.79;94713.16;5045777;28;20236;-70
2024/01/14 02:09:27;;;;;;;34.23;22.27;;;;;;;-3.71;57.50;94713.72;5035041;28;20217;-71
2024/01/14 02:11:53;;;;;;;31.10;21.63;;;;;;;-3.69;57.73;94714.44;5035820;28;20218;-71
2024/01/14 02:14:18;;;;;;;29.77;21.17;;;;;;;-3.60;57.49;94711.47;5034329;28;20214;-71
2024/01/14 02:16:44;;;;;;;35.10;22.83;;;;;;;-3.61;57.13;94717.50;5034137;28;20175;-72
2024/01/14 02:19:09;;;;;;;32.93;22.63;;;;;;;-3.71;57.59;94716.28;5034033;28;20258;-70
2024/01/14 02:21:42;;;;;;;33.73;21.93;;;;;;;-3.47;57.06;94716.84;5033858;28;20218;-71
2024/01/14 02:24:43;;;;;;;31.40;21.40;;;;;;;-3.57;57.23;94707.91;5041659;28;20301;-69
2024/01/14 02:27:09;;;;;;;31.40;21.70;;;;;;;-3.65;57.32;94710.03;5018593;28;20305;-72
2024/01/14 02:29:37;;;;;;;28.93;20.83;;;;;;;-3.59;57.49;94723.38;5033786;28;20236;-70
2024/01/14 02:32:03;;;;;;;28.37;21.20;;;;;;;-3.62;57.19;94712.44;5034161;28;20198;-71
2024/01/14 02:34:29;;;;;;;28.27;21.10;;;;;;;-3.64;57.46;94725.34;5033596;28;20222;-70
2024/01/14 02:36:55;;;;;;;30.77;21.40;;;;;;;-3.57;57.07;94716.44;5016758;28;20221;-70
2024/01/14 02:39:20;;;;;;;27.97;20.00;;;;;;;-3.70;57.34;94705.09;5016702;28;20276;-70
2024/01/14 02:41:45;;;;;;;32.47;21.50;;;;;;;-3.61;57.30;94714.09;5033818;28;20233;-71
2024/01/14 02:44:11;;;;;;;29.03;20.10;;;;;;;-3.59;57.36;94714.84;5016904;28;20221;-70
2024/01/14 02:46:36;;;;;;;32.43;20.73;;;;;;;-3.61;57.17;94703.81;5033682;28;20195;-70
2024/01/14 02:49:02;;;;;;;30.37;20.97;;;;;;;-3.81;57.94;94702.22;5010202;28;20257;-70
2024/01/14 02:51:27;;;;;;;30.77;21.97;;;;;;;-3.81;57.34;94692.75;5023885;28;20214;-70
2024/01/14 02:53:52;;;;;;;28.37;21.03;;;;;;;-3.73;57.44;94694.97;5016740;28;20232;-70
2024/01/14 02:56:18;;;;;;;27.73;19.97;;;;;;;-3.42;56.76;94698.59;5016631;28;20197;-71
2024/01/14 02:58:44;;;;;;;27.63;20.63;;;;;;;-3.71;57.11;94700.88;5029758;28;20277;-71
2024/01/14 03:01:11;;;;;;;26.93;20.53;;;;;;;-3.76;57.77;94700.25;5032007;28;20268;-72
2024/01/14 03:03:37;;;;;;;31.47;21.50;;;;;;;-3.69;57.26;94700.78;5040514;28;20233;-72
2024/01/14 03:06:03;;;;;;;28.03;19.23;;;;;;;-3.79;57.93;94700.41;5067937;28;20296;-72
2024/01/14 03:08:29;;;;;;;27.87;19.93;;;;;;;-3.84;57.87;94707.50;5054177;28;20281;-70
2024/01/14 03:10:55;;;;;;;27.17;19.13;;;;;;;-3.87;57.34;94702.50;5052727;28;20189;-71
2024/01/14 03:13:20;;;;;;;28.27;19.17;;;;;;;-3.91;57.39;94695.84;5050535;28;20231;-72
2024/01/14 03:15:46;;;;;;;27.60;19.40;;;;;;;-3.86;57.70;94704.16;5053743;28;20221;-72
2024/01/14 03:18:12;;;;;;;30.33;20.57;;;;;;;-3.91;57.90;94698.41;5052653;28;20221;-71
2024/01/14 03:20:37;;;;;;;29.30;20.70;;;;;;;-3.92;57.75;94695.03;5051806;28;20226;-71
2024/01/14 03:23:03;;;;;;;25.97;18.63;;;;;;;-3.86;57.51;94693.88;5054100;28;20193;-71
2024/01/14 03:25:29;;;;;;;28.50;19.60;;;;;;;-3.90;57.84;94689.78;5042967;28;20241;-71
2024/01/14 03:27:54;;;;;;;27.07;19.50;;;;;;;-3.93;57.92;94697.66;5053565;28;20225;-71
2024/01/14 03:30:20;;;;;;;24.33;18.37;;;;;;;-3.97;57.59;94691.00;5046404;28;20289;-70
2024/01/14 03:32:46;;;;;;;27.70;19.77;;;;;;;-3.94;57.68;94681.41;5045516;28;20228;-70
2024/01/14 03:35:11;;;;;;;31.83;20.93;;;;;;;-3.93;57.40;94682.25;5053253;28;20178;-71
2024/01/14 03:37:36;;;;;;;30.13;21.47;;;;;;;-4.03;57.69;94680.13;5069488;28;20189;-71
2024/01/14 03:40:03;;;;;;;25.50;19.27;;;;;;;-4.05;57.74;94684.50;5052828;28;20259;-72
2024/01/14 03:42:28;;;;;;;27.97;19.50;;;;;;;-4.19;58.20;94686.88;5052935;28;20240;-72
2024/01/14 03:44:54;;;;;;;31.67;19.73;;;;;;;-4.03;57.86;94703.22;5052330;28;20267;-72
2024/01/14 03:47:19;;;;;;;26.00;19.10;;;;;;;-4.08;58.03;94688.94;5053183;28;20220;-72
2024/01/14 03:49:45;;;;;;;30.00;19.27;;;;;;;-3.99;57.58;94679.06;5053926;28;20206;-72
2024/01/14 03:52:10;;;;;;;26.43;18.83;;;;;;;-3.92;57.20;94707.88;5052080;28;20221;-72
2024/01/14 03:54:36;;;;;;;26.47;18.30;;;;;;;-4.04;57.35;94708.44;5052746;28;20248;-70
2024/01/14 03:57:01;;;;;;;27.87;17.83;;;;;;;-4.10;57.57;94689.00;5066110;28;20278;-71
2024/01/14 03:59:27;;;;;;;25.10;18.53;;;;;;;-3.99;57.34;94712.44;5068470;28;20210;-71
2024/01/14 04:01:52;;;;;;;29.00;19.77;;;;;;;-3.96;58.05;94729.44;5051452;28;20194;-71
2024/01/14 04:04:17;;;;;;;31.03;20.30;;;;;;;-4.06;57.40;94720.53;5052046;28;20256;-71
2024/01/14 04:06:43;;;;;;;30.73;19.83;;;;;;;-4.06;57.61;94708.53;5052330;28;20237;-71
2024/01/14 04:09:10;;;;;;;29.33;21.07;;;;;;;-4.11;57.59;94707.06;5052672;28;20213;-71
2024/01/14 04:11:35;;;;;;;30.77;20.90;;;;;;;-4.08;57.54;94705.19;5051015;28;20275;-71
2024/01/14 04:14:01;;;;;;;28.37;19.57;;;;;;;-4.18;57.82;94719.34;5057258;28;20174;-70
2024/01/14 04:16:26;;;;;;;30.70;20.63;;;;;;;-4.02;57.67;94727.19;5052510;28;20221;-70
2024/01/14 04:18:52;;;;;;;27.87;19.87;;;;;;;-4.19;57.58;94707.41;5050439;28;20279;-70
2024/01/14 04:21:24;;;;;;;29.47;20.57;;;;;;;-4.08;57.37;94704.34;5067162;28;20237;-71
2024/01/14 04:23:50;;;;;;;28.07;19.47;;;;;;;-4.16;57.81;94711.59;5050475;28;20288;-71
2024/01/14 04:26:22;;;;;;;30.43;20.53;;;;;;;-4.30;57.84;94679.69;5050108;28;20190;-72
2024/01/14 04:28:49;;;;;;;30.77;20.73;;;;;;;-4.41;58.28;94691.31;5051472;28;20193;-71
2024/01/14 04:31:15;;;;;;;26.13;20.60;;;;;;;-4.38;58.22;94692.03;5068861;28;20213;-71
2024/01/14 04:33:40;;;;;;;31.63;21.57;;;;;;;-4.37;58.35;94687.72;5047181;28;20231;-72
2024/01/14 04:36:06;;;;;;;33.30;23.10;;;;;;;-4.25;58.17;94688.00;5051837;28;20232;-70
2024/01/14 04:38:31;;;;;;;32.00;22.20;;;;;;;-4.43;57.69;94687.09;5050225;28;20260;-71
2024/01/14 04:40:57;;;;;;;31.37;21.40;;;;;;;-4.29;58.17;94685.66;5052745;28;20213;-70
2024/01/14 04:43:22;;;;;;;27.33;18.97;;;;;;;-4.17;57.87;94684.22;5051715;28;20222;-71
2024/01/14 04:45:47;;;;;;;27.97;20.93;;;;;;;-4.29;57.98;94680.50;5052244;28;20214;-70
2024/01/14 04:48:13;;;;;;;30.63;20.83;;;;;;;-4.26;57.95;94698.34;5050882;28;20224;-71
2024/01/14 04:50:40;;;;;;;27.07;19.90;;;;;;;-4.22;58.08;94687.03;5048483;28;20226;-70
2024/01/14 04:53:06;;;;;;;33.93;20.93;;;;;;;-4.31;58.29;94695.13;5049874;28;20182;-71
2024/01/14 04:55:31;;;;;;;30.53;19.87;;;;;;;-4.24;57.91;94699.94;5068014;28;20221;-71
2024/01/14 04:57:57;;;;;;;27.80;19.63;;;;;;;-4.34;58.19;94690.97;5051971;28;20263;-71
2024/01/14 05:00:25;;;;;;;29.20;19.20;;;;;;;-4.29;58.04;94698.47;5068578;28;20233;-71
2024/01/14 05:02:51;;;;;;;29.27;20.13;;;;;;;-4.20;57.79;94705.75;5049566;28;20224;-71
2024/01/14 05:05:16;;;;;;;29.97;19.83;;;;;;;-4.41;57.89;94707.59;5051533;28;20235;-72
2024/01/14 05:07:42;;;;;;;27.73;19.97;;;;;;;-4.34;57.83;94706.38;5052746;28;20185;-71
2024/01/14 05:10:08;;;;;;;27.90;20.53;;;;;;;-4.27;57.71;94701.81;5046562;28;20218;-70
2024/01/14 05:12:34;;;;;;;26.60;19.57;;;;;;;-4.74;58.27;94700.47;5047616;28;20248;-72
2024/01/14 05:15:00;;;;;;;28.10;20.13;;;;;;;-4.60;57.73;94697.28;5052043;28;20632;-71
2024/01/14 05:17:26;;;;;;;28.90;19.73;;;;;;;-4.56;57.92;94698.00;5049328;28;20208;-70
2024/01/14 05:19:51;;;;;;;27.27;18.93;;;;;;;-4.51;57.91;94685.81;5051977;28;20236;-70
2024/01/14 05:22:17;;;;;;;26.57;18.80;;;;;;;-4.42;57.96;94693.06;5051349;28;20221;-70
2024/01/14 05:24:43;;;;;;;26.77;19.53;;;;;;;-4.56;57.87;94698.00;5052895;28;20312;-70
2024/01/14 05:27:11;;;;;;;30.47;19.77;;;;;;;-4.60;57.98;94691.34;5051014;28;20223;-70
2024/01/14 05:29:40;;;;;;;26.33;19.07;;;;;;;-4.43;57.72;94694.81;5067431;28;20217;-71
2024/01/14 05:32:07;;;;;;;27.37;18.93;;;;;;;-4.52;57.72;94692.66;5050968;28;20178;-70
2024/01/14 05:34:32;;;;;;;29.50;20.00;;;;;;;-4.70;58.25;94681.50;5051313;28;20232;-70
2024/01/14 05:36:59;;;;;;;27.20;18.63;;;;;;;-4.69;58.19;94684.88;5051240;28;20217;-70
2024/01/14 05:39:25;;;;;;;26.30;19.57;;;;;;;-4.77;58.82;94685.22;5051385;28;20237;-70
2024/01/14 05:41:50;;;;;;;27.00;18.40;;;;;;;-4.68;58.32;94689.09;5051252;28;20225;-70
2024/01/14 05:44:16;;;;;;;27.10;18.80;;;;;;;-4.55;58.54;94689.41;5052155;28;20188;-71
2024/01/14 05:46:41;;;;;;;27.30;19.47;;;;;;;-4.63;58.35;94687.16;5053385;28;20257;-71
2024/01/14 05:49:07;;;;;;;28.03;18.97;;;;;;;-4.52;58.55;94684.94;5054501;28;20232;-70
2024/01/14 05:51:32;;;;;;;27.70;20.00;;;;;;;-4.48;58.21;94686.47;5055251;28;20283;-72
2024/01/14 05:53:57;;;;;;;31.73;19.70;;;;;;;-4.47;57.80;94682.19;5053876;28;20244;-72
2024/01/14 05:56:25;;;;;;;28.53;19.67;;;;;;;-4.45;58.51;94690.66;5054026;28;20185;-72
2024/01/14 05:58:51;;;;;;;25.97;19.30;;;;;;;-4.61;58.38;94689.69;5070803;28;20178;-72
2024/01/14 06:01:16;;;;;;;29.53;19.27;;;;;;;-4.62;58.36;94688.84;5054571;28;20241;-71
2024/01/14 06:03:41;;;;;;;27.20;19.40;;;;;;;-4.56;58.11;94688.56;5038257;28;20218;-71
2024/01/14 06:06:08;;;;;;;28.80;19.40;;;;;;;-4.51;58.49;94696.06;5055170;28;20213;-72
2024/01/14 06:08:33;;;;;;;26.53;18.83;;;;;;;-4.57;58.77;94681.78;5071171;28;20217;-72
2024/01/14 06:11:01;;;;;;;29.57;19.63;;;;;;;-4.44;58.10;94682.03;5055644;28;20181;-72
2024/01/14 06:13:27;;;;;;;33.50;19.40;;;;;;;-4.55;58.36;94677.38;5050752;28;20248;-71
2024/01/14 06:15:52;;;;;;;25.17;17.87;;;;;;;-4.62;58.51;94678.59;5054970;28;20214;-72
2024/01/14 06:18:18;;;;;;;29.57;19.43;;;;;;;-4.47;58.04;94677.03;5055002;28;20217;-72
2024/01/14 06:20:43;;;;;;;28.83;19.53;;;;;;;-4.73;58.78;94678.22;5053076;28;20221;-71
2024/01/14 06:23:09;;;;;;;29.70;19.90;;;;;;;-4.64;59.25;94680.38;5062344;28;20207;-71
2024/01/14 06:25:34;;;;;;;26.67;18.63;;;;;;;-4.56;58.69;94673.16;5060713;28;20313;-72
2024/01/14 06:28:02;;;;;;;28.07;19.53;;;;;;;-4.63;58.88;94674.34;5054704;28;20251;-71
2024/01/14 06:30:27;;;;;;;27.77;19.80;;;;;;;-4.49;58.32;94682.25;5052689;28;20229;-71
2024/01/14 06:32:56;;;;;;;27.13;19.70;;;;;;;-4.49;58.57;94682.25;5051046;28;20210;-72
2024/01/14 06:35:21;;;;;;;28.10;19.10;;;;;;;-4.41;58.49;94681.06;5053487;28;20235;-72
2024/01/14 06:37:47;;;;;;;29.13;19.53;;;;;;;-4.46;58.91;94682.13;5054576;28;20282;-73
2024/01/14 06:40:13;;;;;;;26.37;18.33;;;;;;;-4.19;58.41;94670.66;5053659;28;20247;-72
2024/01/14 06:42:38;;;;;;;28.03;19.20;;;;;;;-4.05;58.21;94686.22;5052595;28;20218;-73
2024/01/14 06:45:04;;;;;;;26.70;18.30;;;;;;;-4.15;58.39;94685.00;5052869;28;20237;-72
2024/01/14 06:47:30;;;;;;;27.23;19.17;;;;;;;-4.14;57.90;94673.81;5068902;28;20182;-72
2024/01/14 06:49:55;;;;;;;28.87;18.80;;;;;;;-3.95;57.72;94666.09;5053596;28;20216;-71
2024/01/14 06:52:22;;;;;;;24.57;17.60;;;;;;;-3.97;57.97;94658.44;5054032;28;20221;-73
2024/01/14 06:54:49;;;;;;;24.03;17.67;;;;;;;-4.12;58.59;94667.69;5066285;28;20222;-70
2024/01/14 06:57:14;;;;;;;25.83;16.53;;;;;;;-3.96;57.91;94659.28;5053538;28;20229;-72
2024/01/14 06:59:42;;;;;;;26.23;17.83;;;;;;;-3.74;57.76;94665.06;5048743;28;20233;-71
2024/01/14 07:02:08;;;;;;;26.47;17.47;;;;;;;-3.88;57.96;94658.00;5054608;28;20311;-71
2024/01/14 07:04:33;;;;;;;25.47;17.27;;;;;;;-3.77;57.74;94647.19;5051911;28;20248;-72
2024/01/14 07:06:59;;;;;;;25.97;15.80;;;;;;;-3.63;57.46;94646.53;5046344;28;20254;-71
2024/01/14 07:09:25;;;;;;;24.60;15.60;;;;;;;-3.56;57.31;94650.44;5051834;28;20233;-71
2024/01/14 07:11:50;;;;;;;24.77;15.40;;;;;;;-3.53;57.43;94654.59;5051720;28;20220;-71
2024/01/14 07:14:15;;;;;;;23.57;15.10;;;;;;;-3.41;57.16;94659.16;5052641;28;20182;-72
2024/01/14 07:16:41;;;;;;;22.50;15.77;;;;;;;-3.43;57.22;94646.38;5053485;28;20188;-72
2024/01/14 07:19:06;;;;;;;26.20;16.00;;;;;;;-3.33;57.23;94649.31;5049956;28;20221;-75
2024/01/14 07:21:32;;;;;;;17.83;12.43;;;;;;;-3.36;56.47;94646.91;5068603;28;20221;-72
2024/01/14 07:23:57;;;;;;;19.43;11.70;;;;;;;-3.32;56.05;94641.50;5053627;28;20232;-71
2024/01/14 07:26:23;;;;;;;21.93;13.47;;;;;;;-3.11;56.21;94657.59;5069813;28;20185;-72
2024/01/14 07:28:49;;;;;;;18.07;11.80;;;;;;;-3.02;55.81;94661.44;5054127;28;20182;-73
2024/01/14 07:31:20;;;;;;;19.37;12.57;;;;;;;-2.87;55.83;94664.94;5051320;28;20321;-73
2024/01/14 07:33:52;;;;;;;25.47;15.07;;;;;;;-2.75;55.11;94645.47;5052457;28;20275;-73
2024/01/14 07:36:18;;;;;;;23.57;15.40;;;;;;;-3.05;56.86;94660.75;5049279;28;20213;-74
2024/01/14 07:38:44;;;;;;;22.50;14.70;;;;;;;-2.84;55.94;94666.53;5050063;28;20236;-75
2024/01/14 07:41:12;;;;;;;24.90;16.73;;;;;;;-3.05;56.63;94669.28;5053362;28;20210;-76
2024/01/14 07:43:38;;;;;;;21.23;15.37;;;;;;;-2.96;56.03;94662.88;5052080;28;20213;-75
2024/01/14 07:46:08;;;;;;;24.73;16.53;;;;;;;-2.89;55.84;94664.19;5050288;28;20225;-73
2024/01/14 07:48:34;;;;;;;22.87;15.77;;;;;;;-2.72;55.53;94651.28;5052136;28;20228;-73
2024/01/14 07:51:01;;;;;;;22.70;14.90;;;;;;;-2.53;54.95;94645.16;5050866;28;20594;-73
2024/01/14 07:53:26;;;;;;;27.47;15.77;;;;;;;-2.40;54.60;94645.34;5050327;28;20185;-72
2024/01/14 07:55:52;;;;;;;34.10;19.87;;;;;;;-2.29;54.38;94654.13;5038578;28;20190;-73
2024/01/14 07:58:17;;;;;;;33.23;20.67;;;;;;;-2.36;54.03;94639.91;5046123;28;20272;-77
2024/01/14 08:00:46;;;;;;;32.37;19.73;;;;;;;-2.27;54.11;94651.50;5049495;28;20320;-76
2024/01/14 08:03:11;;;;;;;31.83;20.73;;;;;;;-2.32;54.38;94645.75;5048930;28;20295;-73
2024/01/14 08:05:40;;;;;;;35.67;22.67;;;;;;;-2.25;54.17;94645.31;5050266;28;20216;-75
2024/01/14 08:08:06;;;;;;;35.43;24.97;;;;;;;-2.17;54.07;94638.91;5051248;28;20190;-74
2024/01/14 08:10:32;;;;;;;36.13;25.23;;;;;;;-2.13;53.82;94624.97;5049383;28;20228;-77
2024/01/14 08:12:58;;;;;;;38.70;25.17;;;;;;;-1.97;53.39;94610.31;5051445;28;20248;-76
2024/01/14 08:15:24;;;;;;;28.40;20.30;;;;;;;-2.11;53.14;94623.97;5068636;28;20296;-74
2024/01/14 08:17:49;;;;;;;28.90;18.60;;;;;;;-1.96;53.05;94632.56;5049981;28;20260;-75
2024/01/14 08:20:15;;;;;;;28.70;19.80;;;;;;;-1.90;53.09;94637.38;5041777;28;20205;-73
2024/01/14 08:22:40;;;;;;;29.83;18.17;;;;;;;-1.89;52.85;94623.59;5068511;28;20193;-75
2024/01/14 08:25:07;;;;;;;31.27;19.43;;;;;;;-1.84;53.00;94623.34;5047719;28;20233;-74
2024/01/14 08:27:33;;;;;;;32.73;19.87;;;;;;;-1.78;53.04;94615.25;5051320;28;20221;-76
2024/01/14 08:29:59;;;;;;;32.37;21.20;;;;;;;-1.78;53.20;94626.38;5046097;28;20222;-76
2024/01/14 08:32:25;;;;;;;29.33;19.13;;;;;;;-1.70;52.92;94633.69;5048275;28;20185;-75
2024/01/14 08:34:50;;;;;;;29.70;18.43;;;;;;;-1.61;52.64;94632.31;5051846;28;20200;-77
2024/01/14 08:37:16;;;;;;;33.23;21.20;;;;;;;-1.45;52.50;94625.34;5064114;28;20232;-77
2024/01/14 08:39:41;;;;;;;31.83;20.90;;;;;;;-1.46;52.36;94628.03;5072655;28;20221;-76
2024/01/14 08:42:07;;;;;;;30.67;20.50;;;;;;;-1.66;52.90;94637.72;5049659;28;20263;-77
2024/01/14 08:44:32;;;;;;;29.17;20.37;;;;;;;-1.66;53.10;94627.41;5051517;28;20224;-75
2024/01/14 08:46:59;;;;;;;28.13;20.07;;;;;;;-1.57;52.60;94621.75;5051387;28;20193;-76
2024/01/14 08:49:26;;;;;;;27.83;19.17;;;;;;;-1.35;52.05;94623.91;5051867;28;20225;-74
2024/01/14 08:51:52;;;;;;;30.83;19.00;;;;;;;-1.18;51.11;94619.50;5066895;28;20223;-72
2024/01/14 08:54:18;;;;;;;29.40;20.00;;;;;;;-1.16;51.33;94628.81;5050066;28;20232;-75
2024/01/14 08:56:43;;;;;;;26.50;19.20;;;;;;;-1.11;51.19;94624.19;5048867;28;20225;-77
2024/01/14 08:59:09;;;;;;;30.83;19.47;;;;;;;-0.96;51.06;94622.47;5067299;28;20197;-79
2024/01/14 09:01:35;;;;;;;32.30;20.20;;;;;;;-0.74;50.48;94623.75;5049393;28;20222;-78
2024/01/14 09:04:01;;;;;;;30.90;20.00;;;;;;;-0.66;50.46;94611.22;5050052;28;20259;-78
2024/01/14 09:06:26;;;;;;;28.80;18.20;;;;;;;-0.63;50.18;94608.44;5070027;28;20221;-75
2024/01/14 09:08:52;;;;;;;24.40;17.87;;;;;;;-0.47;49.62;94611.72;5035735;28;20221;-82
2024/01/14 09:11:17;;;;;;;24.50;17.60;;;;;;;-0.51;49.25;94612.00;5055787;28;20208;-82
2024/01/14 09:13:45;;;;;;;30.17;18.80;;;;;;;-0.47;49.38;94622.06;5051804;28;20179;-81
2024/01/14 09:16:11;;;;;;;25.60;17.40;;;;;;;-0.57;49.42;94614.97;5050854;28;20210;-79
2024/01/14 09:18:37;;;;;;;28.20;18.33;;;;;;;-0.57;49.96;94610.63;5054471;28;20282;-80
2024/01/14 09:21:02;;;;;;;28.80;19.97;;;;;;;-0.35;49.57;94612.69;5052794;28;20229;-81
2024/01/14 09:23:29;;;;;;;29.67;20.83;;;;;;;-0.28;49.85;94626.06;5056254;28;20193;-81
2024/01/14 09:25:56;;;;;;;32.13;20.67;;;;;;;-0.04;49.78;94621.13;5054280;28;20178;-78
2024/01/14 09:28:24;;;;;;;34.93;21.70;;;;;;;0.02;49.20;94612.13;5053474;28;20224;-78
2024/01/14 09:30:50;;;;;;;32.03;22.20;;;;;;;0.18;48.44;94618.81;5052116;28;20282;-79
2024/01/14 09:33:16;;;;;;;29.67;20.57;;;;;;;0.03;48.62;94618.94;5068884;28;20308;-82
2024/01/14 09:35:42;;;;;;;30.83;21.13;;;;;;;-0.47;49.65;94597.97;5049482;28;20297;-80
2024/01/14 09:38:08;;;;;;;32.90;21.07;;;;;;;-0.43;49.85;94590.88;5049898;28;20174;-83
2024/01/14 09:40:35;;;;;;;31.50;21.13;;;;;;;-0.22;48.40;94595.50;5068807;28;20221;-80
2024/01/14 09:43:04;;;;;;;31.83;20.43;;;;;;;-0.33;49.10;94595.34;5058189;28;20221;-83
2024/01/14 09:45:39;;;;;;;34.03;20.40;;;;;;;-0.52;49.74;94585.34;5077791;28;20296;-82
2024/01/14 09:48:05;;;;;;;31.80;19.87;;;;;;;-0.41;49.55;94587.25;5052742;28;20228;-82
2024/01/14 09:50:31;;;;;;;31.20;20.97;;;;;;;-0.15;49.22;94592.56;5055330;28;20178;-82
2024/01/14 09:52:58;;;;;;;30.77;20.00;;;;;;;-0.05;48.68;94586.69;5066294;28;20186;-79
2024/01/14 09:55:27;;;;;;;28.03;20.23;;;;;;;-0.02;48.69;94576.16;5050201;28;20237;-80
2024/01/14 09:57:53;;;;;;;28.77;20.47;;;;;;;0.19;47.71;94580.88;5049974;28;20245;-77
2024/01/14 10:00:23;;;;;;;30.07;19.77;;;;;;;0.22;48.07;94559.97;5053304;28;20295;-81
2024/01/14 10:02:48;;;;;;;34.37;21.53;;;;;;;0.48;47.94;94570.34;5048837;28;20221;-79
2024/01/14 10:05:15;;;;;;;28.67;19.50;;;;;;;0.41;47.40;94562.19;5051208;28;20197;-81
2024/01/14 10:07:43;;;;;;;32.50;20.63;;;;;;;0.76;47.15;94571.94;5056682;28;20197;-81
2024/01/14 10:10:09;;;;;;;28.90;20.80;;;;;;;0.61;47.18;94566.00;5052609;28;20300;-80
2024/01/14 10:12:36;;;;;;;29.53;20.17;;;;;;;0.56;46.86;94565.50;5054680;28;20219;-81
2024/01/14 10:15:02;;;;;;;28.10;20.27;;;;;;;0.83;47.40;94563.66;5056544;28;20221;-79
2024/01/14 10:17:29;;;;;;;30.87;20.43;;;;;;;1.12;46.79;94554.81;5050961;28;20206;-79
2024/01/14 10:19:58;;;;;;;29.33;20.23;;;;;;;1.19;46.23;94546.50;5048300;28;20263;-81
2024/01/14 10:22:27;;;;;;;31.87;20.33;;;;;;;1.21;46.05;94552.41;5052062;28;20225;-81
2024/01/14 10:24:54;;;;;;;28.57;20.40;;;;;;;1.38;45.97;94550.41;5045346;28;20296;-79
2024/01/14 10:27:21;;;;;;;30.03;20.73;;;;;;;1.58;45.86;94539.47;5050044;28;20225;-78
2024/01/14 10:29:47;;;;;;;31.60;21.07;;;;;;;1.59;45.38;94535.94;5071573;28;20225;-80
2024/01/14 10:32:13;;;;;;;30.43;20.00;;;;;;;1.75;45.40;94533.06;5056093;28;20182;-77
2024/01/14 10:34:40;;;;;;;30.57;20.33;;;;;;;1.77;44.93;94529.44;5055751;28;20177;-78
2024/01/14 10:37:06;;;;;;;28.67;21.10;;;;;;;1.72;44.80;94528.94;5056141;28;20221;-77
2024/01/14 10:39:32;;;;;;;32.10;21.57;;;;;;;1.70;45.39;94530.00;5056379;28;20299;-77
2024/01/14 10:41:58;;;;;;;31.37;20.13;;;;;;;1.77;45.07;94519.06;5054559;28;20220;-77
2024/01/14 10:44:24;;;;;;;29.73;20.70;;;;;;;1.93;44.70;94505.00;5053366;28;20189;-78
2024/01/14 10:46:52;;;;;;;31.37;22.00;;;;;;;1.97;44.74;94491.69;5070120;28;20447;-77
2024/01/14 10:49:24;;;;;;;32.43;19.77;;;;;;;2.11;43.97;94495.03;5065951;28;20260;-78
2024/01/14 10:51:58;;;;;;;30.37;21.13;;;;;;;1.87;44.59;94482.94;5072326;28;20217;-75
2024/01/14 10:54:42;;;;;;;29.30;19.43;;;;;;;2.04;43.84;94480.88;5054854;28;20264;-81
2024/01/14 10:57:29;;;;;;;28.23;20.50;;;;;;;2.24;44.26;94492.34;5074424;28;20221;-81
2024/01/14 11:00:08;;;;;;;29.87;19.83;;;;;;;2.53;43.39;94472.81;5055022;28;20296;-81
2024/01/14 11:02:35;;;;;;;27.57;19.03;;;;;;;2.62;42.77;94468.72;5071549;28;20228;-83
2024/01/14 11:05:03;;;;;;;26.33;19.47;;;;;;;2.73;42.34;94478.28;5056098;28;20165;-79
2024/01/14 11:07:30;;;;;;;27.97;18.87;;;;;;;2.75;43.30;94463.41;5052847;28;20321;-74
2024/01/14 11:09:56;;;;;;;27.13;19.67;;;;;;;2.92;42.69;94464.72;5050309;28;20210;-74
2024/01/14 11:12:43;;;;;;;25.70;19.27;;;;;;;2.75;42.19;94468.59;5048796;28;20236;-74
2024/01/14 11:15:24;;;;;;;26.03;19.07;;;;;;;2.43;43.14;94466.66;5065406;28;20307;-79